createdAt,value
2018-06-27T00:00:02.359Z,0
2018-06-27T00:01:11.897Z,0
2018-06-27T00:02:22.014Z,0
2018-06-27T00:03:31.800Z,0
2018-06-27T00:04:41.595Z,0
2018-06-27T00:05:51.413Z,0
2018-06-27T00:07:01.220Z,0
2018-06-27T00:08:10.807Z,0
2018-06-27T00:09:20.596Z,0
2018-06-27T00:10:30.684Z,0
2018-06-27T00:11:40.495Z,0
2018-06-27T00:12:50.570Z,0
2018-06-27T00:14:00.431Z,0
2018-06-27T00:15:10.491Z,0
2018-06-27T00:16:20.309Z,0
2018-06-27T00:17:29.847Z,0
2018-06-27T00:18:39.926Z,0
2018-06-27T00:19:50.069Z,0
2018-06-27T00:20:59.886Z,0
2018-06-27T00:22:09.704Z,0
2018-06-27T00:23:19.773Z,0
2018-06-27T00:24:29.571Z,0
2018-06-27T00:25:39.134Z,0
2018-06-27T00:26:48.945Z,0
2018-06-27T00:27:59.022Z,0
2018-06-27T00:29:08.549Z,0
2018-06-27T00:30:18.360Z,0
2018-06-27T00:31:28.462Z,0
2018-06-27T00:32:38.534Z,0
2018-06-27T00:33:48.415Z,0
2018-06-27T00:34:58.546Z,0
2018-06-27T00:36:07.808Z,0
2018-06-27T00:37:17.937Z,0
2018-06-27T00:38:27.726Z,0
2018-06-27T00:39:37.818Z,0
2018-06-27T00:40:47.628Z,0
2018-06-27T00:41:57.436Z,0
2018-06-27T00:43:07.284Z,0
2018-06-27T00:44:16.822Z,0
2018-06-27T00:45:26.359Z,0
2018-06-27T00:46:36.447Z,0
2018-06-27T00:47:45.965Z,0
2018-06-27T00:48:56.077Z,0
2018-06-27T00:50:05.944Z,0
2018-06-27T00:51:16.019Z,0
2018-06-27T00:52:26.097Z,0
2018-06-27T00:53:36.189Z,0
2018-06-27T00:54:46.034Z,0
2018-06-27T00:55:55.571Z,0
2018-06-27T00:57:05.663Z,0
2018-06-27T00:58:15.471Z,0
2018-06-27T00:59:25.280Z,0
2018-06-27T01:00:35.140Z,0
2018-06-27T01:01:45.208Z,0
2018-06-27T01:02:55.285Z,0
2018-06-27T01:04:05.098Z,0
2018-06-27T01:05:15.171Z,0
2018-06-27T01:06:25.281Z,0
2018-06-27T01:07:35.344Z,0
2018-06-27T01:08:45.429Z,0
2018-06-27T01:09:55.504Z,0
2018-06-27T01:11:05.570Z,0
2018-06-27T01:12:15.419Z,0
2018-06-27T01:13:24.953Z,0
2018-06-27T01:14:34.740Z,0
2018-06-27T01:15:44.542Z,0
2018-06-27T01:16:54.630Z,0
2018-06-27T01:18:04.202Z,0
2018-06-27T01:19:14.279Z,0
2018-06-27T01:20:24.091Z,0
2018-06-27T01:21:33.888Z,0
2018-06-27T01:22:43.153Z,0
2018-06-27T01:23:53.261Z,0
2018-06-27T01:25:03.066Z,0
2018-06-27T01:26:12.867Z,0
2018-06-27T01:27:22.384Z,0
2018-06-27T01:28:31.912Z,0
2018-06-27T01:29:42.041Z,5
2018-06-27T01:30:52.129Z,5
2018-06-27T01:32:02.195Z,5
2018-06-27T01:33:11.435Z,5
2018-06-27T01:34:21.498Z,5
2018-06-27T01:35:31.643Z,5
2018-06-27T01:36:41.444Z,5
2018-06-27T01:37:51.536Z,5
2018-06-27T01:39:01.629Z,5
2018-06-27T01:40:11.440Z,5
2018-06-27T01:41:21.566Z,5
2018-06-27T01:42:31.353Z,5
2018-06-27T01:43:41.146Z,5
2018-06-27T01:44:51.279Z,5
2018-06-27T01:46:01.372Z,10
2018-06-27T01:47:11.489Z,10
2018-06-27T01:48:21.023Z,10
2018-06-27T01:49:30.817Z,10
2018-06-27T01:50:40.908Z,10
2018-06-27T01:51:50.723Z,10
2018-06-27T01:53:00.792Z,10
2018-06-27T01:54:10.916Z,10
2018-06-27T01:55:20.996Z,10
2018-06-27T01:56:31.083Z,15
2018-06-27T01:57:40.880Z,15
2018-06-27T01:58:51.002Z,15
2018-06-27T02:00:00.787Z,15
2018-06-27T02:01:10.872Z,15
2018-06-27T02:02:20.951Z,15
2018-06-27T02:03:30.998Z,15
2018-06-27T02:04:41.101Z,20
2018-06-27T02:05:50.914Z,20
2018-06-27T02:07:00.729Z,20
2018-06-27T02:08:10.862Z,20
2018-06-27T02:09:20.671Z,20
2018-06-27T02:10:30.525Z,20
2018-06-27T02:11:40.604Z,25
2018-06-27T02:12:50.675Z,25
2018-06-27T02:14:00.748Z,25
2018-06-27T02:15:10.563Z,25
2018-06-27T02:16:20.412Z,25
2018-06-27T02:17:30.491Z,30
2018-06-27T02:18:40.560Z,30
2018-06-27T02:19:50.631Z,30
2018-06-27T02:21:00.156Z,30
2018-06-27T02:22:10.006Z,30
2018-06-27T02:23:20.085Z,35
2018-06-27T02:24:30.168Z,35
2018-06-27T02:25:40.249Z,35
2018-06-27T02:26:50.321Z,35
2018-06-27T02:28:00.477Z,35
2018-06-27T02:29:10.575Z,40
2018-06-27T02:30:20.374Z,40
2018-06-27T02:31:30.435Z,40
2018-06-27T02:32:40.506Z,40
2018-06-27T02:33:50.632Z,45
2018-06-27T02:35:00.710Z,45
2018-06-27T02:36:10.782Z,45
2018-06-27T02:37:20.896Z,45
2018-06-27T02:38:30.964Z,45
2018-06-27T02:39:40.531Z,45
2018-06-27T02:40:50.419Z,45
2018-06-27T02:42:00.495Z,45
2018-06-27T02:43:10.325Z,45
2018-06-27T02:44:20.132Z,50
2018-06-27T02:45:29.438Z,50
2018-06-27T02:46:39.504Z,50
2018-06-27T02:47:49.592Z,50
2018-06-27T02:48:59.668Z,55
2018-06-27T02:50:09.471Z,55
2018-06-27T02:51:19.588Z,55
2018-06-27T02:52:29.661Z,55
2018-06-27T02:53:39.471Z,60
2018-06-27T02:54:49.002Z,60
2018-06-27T02:55:59.096Z,60
2018-06-27T02:57:08.965Z,60
2018-06-27T02:58:19.044Z,60
2018-06-27T02:59:28.296Z,65
2018-06-27T03:03:33.346Z,70
2018-06-27T03:04:43.437Z,70
2018-06-27T03:05:53.527Z,70
2018-06-27T03:07:03.338Z,70
2018-06-27T03:08:12.857Z,70
2018-06-27T03:09:23.275Z,75
2018-06-27T03:10:33.412Z,75
2018-06-27T03:11:43.205Z,75
2018-06-27T03:12:53.012Z,75
2018-06-27T03:14:03.112Z,80
2018-06-27T03:15:12.967Z,80
2018-06-27T03:16:22.770Z,80
2018-06-27T03:17:32.874Z,80
2018-06-27T03:18:42.415Z,85
2018-06-27T03:19:52.488Z,85
2018-06-27T03:21:02.072Z,85
2018-06-27T03:22:11.345Z,85
2018-06-27T03:23:21.152Z,90
2018-06-27T03:24:30.945Z,90
2018-06-27T03:25:40.732Z,90
2018-06-27T03:26:50.850Z,90
2018-06-27T03:28:00.916Z,90
2018-06-27T03:29:10.722Z,90
2018-06-27T03:30:20.812Z,90
2018-06-27T03:31:30.609Z,90
2018-06-27T03:32:40.475Z,90
2018-06-27T03:33:51.025Z,95
2018-06-27T03:35:01.188Z,95
2018-06-27T03:36:10.719Z,95
2018-06-27T03:37:20.792Z,95
2018-06-27T03:38:30.382Z,100
2018-06-27T03:39:40.169Z,100
2018-06-27T03:40:50.242Z,100
2018-06-27T03:42:00.049Z,100
2018-06-27T03:43:10.110Z,105
2018-06-27T03:44:20.224Z,105
2018-06-27T03:45:30.307Z,105
2018-06-27T03:46:40.116Z,105
2018-06-27T03:47:49.918Z,110
2018-06-27T03:48:59.455Z,110
2018-06-27T03:50:09.302Z,110
2018-06-27T03:51:19.094Z,110
2018-06-27T03:52:28.888Z,115
2018-06-27T03:53:38.973Z,115
2018-06-27T03:54:48.485Z,115
2018-06-27T03:55:58.601Z,115
2018-06-27T03:57:08.676Z,120
2018-06-27T03:58:18.744Z,120
2018-06-27T03:59:28.809Z,120
2018-06-27T04:00:38.627Z,120
2018-06-27T04:01:48.747Z,120
2018-06-27T04:02:58.546Z,120
2018-06-27T04:04:08.388Z,120
2018-06-27T04:05:18.464Z,120
2018-06-27T04:06:28.525Z,120
2018-06-27T04:07:38.401Z,120
2018-06-27T04:08:48.468Z,120
2018-06-27T04:09:58.518Z,120
2018-06-27T04:11:08.357Z,120
2018-06-27T04:12:17.881Z,125
2018-06-27T04:13:28.860Z,125
2018-06-27T04:14:38.829Z,125
2018-06-27T04:15:48.796Z,125
2018-06-27T04:16:58.582Z,125
2018-06-27T04:18:08.380Z,125
2018-06-27T04:19:18.518Z,130
2018-06-27T04:20:28.317Z,130
2018-06-27T04:21:38.136Z,130
2018-06-27T04:22:47.664Z,130
2018-06-27T04:23:57.731Z,130
2018-06-27T04:25:07.582Z,135
2018-06-27T04:26:17.379Z,135
2018-06-27T04:27:27.212Z,135
2018-06-27T04:28:37.341Z,135
2018-06-27T04:29:47.429Z,135
2018-06-27T04:30:57.287Z,135
2018-06-27T04:32:07.361Z,140
2018-06-27T04:33:17.424Z,140
2018-06-27T04:34:27.491Z,140
2018-06-27T04:35:37.271Z,140
2018-06-27T04:36:47.125Z,140
2018-06-27T04:37:56.936Z,140
2018-06-27T04:39:06.722Z,145
2018-06-27T04:40:16.524Z,145
2018-06-27T04:41:25.796Z,145
2018-06-27T04:42:35.911Z,145
2018-06-27T04:43:45.712Z,145
2018-06-27T04:44:55.768Z,145
2018-06-27T04:46:05.578Z,145
2018-06-27T04:47:15.666Z,145
2018-06-27T04:48:25.791Z,145
2018-06-27T04:49:36.126Z,145
2018-06-27T04:50:46.016Z,145
2018-06-27T04:51:56.093Z,145
2018-06-27T04:53:05.889Z,150
2018-06-27T04:54:15.472Z,150
2018-06-27T04:55:25.538Z,150
2018-06-27T04:56:35.354Z,150
2018-06-27T04:57:45.429Z,150
2018-06-27T04:58:55.230Z,150
2018-06-27T05:00:05.090Z,150
2018-06-27T05:01:15.176Z,150
2018-06-27T05:02:24.975Z,150
2018-06-27T05:03:34.507Z,150
2018-06-27T05:04:44.041Z,150
2018-06-27T05:05:53.910Z,155
2018-06-27T05:07:04.047Z,155
2018-06-27T05:08:13.580Z,155
2018-06-27T05:09:23.396Z,155
2018-06-27T05:10:32.930Z,155
2018-06-27T05:11:43.367Z,155
2018-06-27T05:12:53.176Z,155
2018-06-27T05:14:03.010Z,160
2018-06-27T05:15:13.113Z,155
2018-06-27T05:16:22.634Z,160
2018-06-27T05:17:32.756Z,160
2018-06-27T05:18:42.569Z,165
2018-06-27T05:19:52.616Z,165
2018-06-27T05:21:02.431Z,165
2018-06-27T05:22:11.963Z,160
2018-06-27T05:23:22.098Z,165
2018-06-27T05:24:32.183Z,165
2018-06-27T05:25:41.968Z,165
2018-06-27T05:26:51.778Z,170
2018-06-27T05:28:01.872Z,170
2018-06-27T05:29:11.723Z,170
2018-06-27T05:30:21.512Z,170
2018-06-27T05:31:31.031Z,170
2018-06-27T05:32:41.310Z,170
2018-06-27T05:33:51.432Z,170
2018-06-27T05:35:01.559Z,175
2018-06-27T05:36:11.374Z,175
2018-06-27T05:37:21.181Z,180
2018-06-27T05:38:30.989Z,180
2018-06-27T05:39:40.795Z,185
2018-06-27T05:40:50.928Z,185
2018-06-27T05:42:01.012Z,190
2018-06-27T05:43:10.827Z,195
2018-06-27T05:44:21.260Z,200
2018-06-27T05:45:31.083Z,200
2018-06-27T05:46:41.212Z,205
2018-06-27T05:47:51.002Z,210
2018-06-27T05:49:01.077Z,210
2018-06-27T05:50:11.144Z,220
2018-06-27T05:51:21.205Z,220
2018-06-27T05:52:30.783Z,225
2018-06-27T05:53:40.605Z,235
2018-06-27T05:54:50.410Z,240
2018-06-27T05:56:00.487Z,245
2018-06-27T05:57:10.574Z,245
2018-06-27T05:58:20.833Z,240
2018-06-27T05:59:30.532Z,245
2018-06-27T06:00:40.329Z,250
2018-06-27T06:01:49.865Z,255
2018-06-27T06:02:59.967Z,260
2018-06-27T06:04:10.097Z,265
2018-06-27T06:05:20.224Z,270
2018-06-27T06:06:30.293Z,265
2018-06-27T06:07:39.567Z,270
2018-06-27T06:08:49.637Z,245
2018-06-27T06:09:59.776Z,245
2018-06-27T06:11:09.928Z,240
2018-06-27T06:12:19.483Z,245
2018-06-27T06:13:29.311Z,250
2018-06-27T06:14:38.845Z,255
2018-06-27T06:15:48.695Z,265
2018-06-27T06:16:58.769Z,275
2018-06-27T06:18:08.857Z,275
2018-06-27T06:19:18.657Z,280
2018-06-27T06:20:28.186Z,285
2018-06-27T06:21:38.039Z,285
2018-06-27T06:22:47.571Z,285
2018-06-27T06:23:57.375Z,285
2018-06-27T06:25:07.437Z,285
2018-06-27T06:26:17.534Z,280
2018-06-27T06:27:27.657Z,275
2018-06-27T06:28:37.718Z,275
2018-06-27T06:29:47.532Z,280
2018-06-27T06:30:57.596Z,280
2018-06-27T06:32:07.772Z,285
2018-06-27T06:33:17.386Z,280
2018-06-27T06:34:27.460Z,285
2018-06-27T06:35:37.270Z,285
2018-06-27T06:36:47.095Z,280
2018-06-27T06:37:57.182Z,280
2018-06-27T06:39:07.586Z,275
2018-06-27T06:40:17.975Z,275
2018-06-27T06:41:28.100Z,270
2018-06-27T06:42:38.174Z,265
2018-06-27T06:43:48.305Z,265
2018-06-27T06:44:58.431Z,265
2018-06-27T06:46:08.507Z,285
2018-06-27T06:47:18.323Z,255
2018-06-27T06:48:27.852Z,270
2018-06-27T06:49:37.937Z,255
2018-06-27T06:50:47.801Z,265
2018-06-27T06:51:57.339Z,250
2018-06-27T06:53:07.166Z,265
2018-06-27T06:54:16.974Z,260
2018-06-27T06:55:27.038Z,260
2018-06-27T06:56:37.183Z,235
2018-06-27T06:57:47.260Z,260
2018-06-27T06:58:56.597Z,240
2018-06-27T07:00:06.681Z,230
2018-06-27T07:01:16.208Z,260
2018-06-27T07:02:26.072Z,260
2018-06-27T07:03:35.878Z,255
2018-06-27T07:04:45.674Z,250
2018-06-27T07:05:55.478Z,255
2018-06-27T07:07:05.015Z,260
2018-06-27T07:08:14.589Z,255
2018-06-27T07:09:24.662Z,250
2018-06-27T07:10:34.196Z,245
2018-06-27T07:11:43.996Z,245
2018-06-27T07:12:53.517Z,240
2018-06-27T07:14:03.384Z,235
2018-06-27T07:15:13.464Z,230
2018-06-27T07:16:22.999Z,230
2018-06-27T07:17:32.544Z,225
2018-06-27T07:18:42.342Z,220
2018-06-27T07:19:52.457Z,220
2018-06-27T07:21:01.998Z,215
2018-06-27T07:22:11.803Z,215
2018-06-27T07:23:21.618Z,220
2018-06-27T07:24:31.168Z,220
2018-06-27T07:25:41.027Z,220
2018-06-27T07:26:50.833Z,215
2018-06-27T07:28:00.915Z,215
2018-06-27T07:29:10.714Z,220
2018-06-27T07:30:20.552Z,220
2018-06-27T07:31:30.699Z,220
2018-06-27T07:32:39.958Z,220
2018-06-27T07:33:49.762Z,220
2018-06-27T07:34:59.289Z,225
2018-06-27T07:36:09.052Z,225
2018-06-27T07:37:19.196Z,225
2018-06-27T07:38:29.287Z,225
2018-06-27T07:39:39.378Z,225
2018-06-27T07:40:49.452Z,225
2018-06-27T07:41:59.555Z,230
2018-06-27T07:43:09.152Z,230
2018-06-27T07:44:19.259Z,230
2018-06-27T07:45:29.071Z,235
2018-06-27T07:46:38.611Z,235
2018-06-27T07:47:48.694Z,240
2018-06-27T07:48:58.830Z,240
2018-06-27T07:50:08.633Z,245
2018-06-27T07:51:18.439Z,250
2018-06-27T07:52:28.253Z,250
2018-06-27T07:53:38.054Z,250
2018-06-27T07:54:47.701Z,250
2018-06-27T07:55:57.520Z,250
2018-06-27T07:57:07.334Z,250
2018-06-27T07:58:17.157Z,245
2018-06-27T07:59:26.427Z,245
2018-06-27T08:00:36.011Z,240
2018-06-27T08:01:45.835Z,240
2018-06-27T08:02:55.906Z,235
2018-06-27T08:04:05.972Z,230
2018-06-27T08:05:16.050Z,225
2018-06-27T08:06:25.922Z,225
2018-06-27T08:07:36.033Z,225
2018-06-27T08:08:45.837Z,220
2018-06-27T08:09:55.916Z,220
2018-06-27T08:11:05.991Z,225
2018-06-27T08:12:15.916Z,220
2018-06-27T08:13:25.743Z,220
2018-06-27T08:14:34.740Z,220
2018-06-27T08:15:44.800Z,220
2018-06-27T08:16:54.612Z,220
2018-06-27T08:18:05.817Z,220
2018-06-27T08:19:15.585Z,220
2018-06-27T08:20:25.397Z,220
2018-06-27T08:21:35.491Z,220
2018-06-27T08:22:45.619Z,220
2018-06-27T08:23:55.461Z,225
2018-06-27T08:25:04.991Z,225
2018-06-27T08:26:15.833Z,225
2018-06-27T08:27:25.739Z,225
2018-06-27T08:28:34.744Z,225
2018-06-27T08:29:44.605Z,225
2018-06-27T08:30:54.675Z,225
2018-06-27T08:32:04.762Z,225
2018-06-27T08:33:14.307Z,225
2018-06-27T08:34:24.378Z,225
2018-06-27T08:35:34.238Z,225
2018-06-27T08:36:43.786Z,225
2018-06-27T08:37:53.862Z,225
2018-06-27T08:39:03.959Z,230
2018-06-27T08:40:14.030Z,230
2018-06-27T08:41:23.871Z,230
2018-06-27T08:42:33.713Z,230
2018-06-27T08:43:43.708Z,230
2018-06-27T08:44:53.598Z,230
2018-06-27T08:46:03.393Z,235
2018-06-27T08:47:13.509Z,230
2018-06-27T08:48:23.593Z,230
2018-06-27T08:49:33.394Z,230
2018-06-27T08:50:43.488Z,230
2018-06-27T08:51:53.026Z,235
2018-06-27T08:53:03.149Z,235
2018-06-27T08:54:13.245Z,235
2018-06-27T08:55:23.051Z,240
2018-06-27T08:56:32.591Z,235
2018-06-27T08:57:42.675Z,235
2018-06-27T08:58:53.218Z,235
2018-06-27T09:00:02.847Z,235
2018-06-27T09:01:12.651Z,240
2018-06-27T09:02:21.906Z,240
2018-06-27T09:03:31.694Z,240
2018-06-27T09:04:41.538Z,240
2018-06-27T09:05:51.354Z,240
2018-06-27T09:07:01.158Z,245
2018-06-27T09:08:11.240Z,245
2018-06-27T09:09:20.777Z,245
2018-06-27T09:10:30.880Z,255
2018-06-27T09:11:40.698Z,250
2018-06-27T09:12:50.515Z,250
2018-06-27T09:14:00.577Z,250
2018-06-27T09:15:10.385Z,250
2018-06-27T09:16:19.971Z,250
2018-06-27T09:17:29.787Z,250
2018-06-27T09:18:39.786Z,250
2018-06-27T09:19:49.334Z,250
2018-06-27T09:20:59.170Z,250
2018-06-27T09:22:09.036Z,255
2018-06-27T09:23:19.131Z,255
2018-06-27T09:24:28.662Z,255
2018-06-27T09:25:38.475Z,255
2018-06-27T09:26:48.019Z,255
2018-06-27T09:27:57.895Z,255
2018-06-27T09:29:07.720Z,255
2018-06-27T09:30:16.982Z,255
2018-06-27T09:31:26.865Z,260
2018-06-27T09:32:36.961Z,260
2018-06-27T09:33:46.803Z,260
2018-06-27T09:34:56.055Z,260
2018-06-27T09:36:05.600Z,260
2018-06-27T09:37:15.698Z,260
2018-06-27T09:38:25.784Z,260
2018-06-27T09:39:35.645Z,270
2018-06-27T09:40:45.733Z,265
2018-06-27T09:41:55.362Z,265
2018-06-27T09:43:05.455Z,265
2018-06-27T09:44:15.011Z,265
2018-06-27T09:45:24.869Z,270
2018-06-27T09:46:34.665Z,270
2018-06-27T09:47:44.460Z,270
2018-06-27T09:48:54.260Z,270
2018-06-27T09:50:04.123Z,275
2018-06-27T09:51:14.231Z,275
2018-06-27T09:52:24.315Z,280
2018-06-27T09:53:34.144Z,280
2018-06-27T09:54:43.954Z,280
2018-06-27T09:55:54.024Z,280
2018-06-27T09:57:03.574Z,285
2018-06-27T09:58:13.328Z,285
2018-06-27T09:59:23.418Z,285
2018-06-27T10:00:33.240Z,290
2018-06-27T10:01:43.342Z,285
2018-06-27T10:02:53.200Z,290
2018-06-27T10:04:03.015Z,295
2018-06-27T10:05:12.568Z,305
2018-06-27T10:06:22.117Z,310
2018-06-27T10:07:31.926Z,315
2018-06-27T10:08:42.067Z,315
2018-06-27T10:09:52.154Z,320
2018-06-27T10:11:02.245Z,320
2018-06-27T10:12:12.047Z,320
2018-06-27T10:13:21.884Z,325
2018-06-27T10:14:31.738Z,320
2018-06-27T10:15:41.543Z,315
2018-06-27T10:16:51.432Z,320
2018-06-27T10:18:01.530Z,320
2018-06-27T10:19:11.339Z,320
2018-06-27T10:20:21.462Z,325
2018-06-27T10:21:31.280Z,330
2018-06-27T10:22:41.730Z,330
2018-06-27T10:23:51.556Z,340
2018-06-27T10:25:01.354Z,340
2018-06-27T10:26:10.935Z,335
2018-06-27T10:27:20.739Z,340
2018-06-27T10:28:30.800Z,335
2018-06-27T10:29:40.683Z,340
2018-06-27T10:30:50.783Z,340
2018-06-27T10:32:00.633Z,345
2018-06-27T10:33:10.726Z,350
2018-06-27T10:34:20.531Z,350
2018-06-27T10:35:30.602Z,335
2018-06-27T10:36:39.876Z,320
2018-06-27T10:37:49.469Z,315
2018-06-27T10:38:59.561Z,315
2018-06-27T10:40:09.386Z,305
2018-06-27T10:41:18.934Z,325
2018-06-27T10:42:28.755Z,340
2018-06-27T10:43:37.803Z,330
2018-06-27T10:44:47.724Z,320
2018-06-27T10:45:57.831Z,310
2018-06-27T10:47:07.919Z,320
2018-06-27T10:48:17.722Z,335
2018-06-27T10:49:27.315Z,335
2018-06-27T10:50:37.123Z,340
2018-06-27T10:51:47.181Z,345
2018-06-27T10:52:57.260Z,345
2018-06-27T10:54:07.075Z,345
2018-06-27T10:55:16.659Z,345
2018-06-27T10:56:26.729Z,335
2018-06-27T10:57:36.535Z,330
2018-06-27T10:58:46.596Z,330
2018-06-27T10:59:55.888Z,335
2018-06-27T11:01:05.584Z,335
2018-06-27T11:02:15.394Z,335
2018-06-27T11:03:25.210Z,340
2018-06-27T11:04:35.029Z,345
2018-06-27T11:05:45.118Z,355
2018-06-27T11:06:54.963Z,355
2018-06-27T11:08:04.501Z,360
2018-06-27T11:09:14.045Z,365
2018-06-27T11:10:23.848Z,370
2018-06-27T11:11:33.943Z,380
2018-06-27T11:12:44.082Z,385
2018-06-27T11:13:54.160Z,390
2018-06-27T11:15:03.951Z,395
2018-06-27T11:16:13.478Z,400
2018-06-27T11:17:23.290Z,400
2018-06-27T11:18:33.154Z,405
2018-06-27T11:19:43.305Z,405
2018-06-27T11:20:52.846Z,410
2018-06-27T11:22:02.395Z,420
2018-06-27T11:23:11.674Z,435
2018-06-27T11:24:21.798Z,450
2018-06-27T11:25:31.876Z,465
2018-06-27T11:26:41.942Z,485
2018-06-27T11:27:51.487Z,505
2018-06-27T11:29:01.588Z,505
2018-06-27T11:30:11.193Z,500
2018-06-27T11:31:21.295Z,500
2018-06-27T11:32:30.837Z,505
2018-06-27T11:33:40.634Z,515
2018-06-27T11:34:50.440Z,510
2018-06-27T11:36:00.578Z,505
2018-06-27T11:37:10.400Z,535
2018-06-27T11:38:20.011Z,610
2018-06-27T11:39:30.099Z,1230
2018-06-27T11:40:40.192Z,2485
2018-06-27T11:41:50.325Z,2605
2018-06-27T11:43:00.135Z,2805
2018-06-27T11:44:09.689Z,2810
2018-06-27T11:45:19.505Z,2740
2018-06-27T11:46:29.584Z,2875
2018-06-27T11:47:39.717Z,2885
2018-06-27T11:48:49.519Z,2775
2018-06-27T11:49:59.321Z,2840
2018-06-27T11:51:09.415Z,2970
2018-06-27T11:52:19.520Z,2865
2018-06-27T11:53:29.712Z,2930
2018-06-27T11:54:39.520Z,2920
2018-06-27T11:55:49.604Z,3010
2018-06-27T11:56:59.704Z,2805
2018-06-27T11:58:09.795Z,2915
2018-06-27T11:59:19.653Z,2830
2018-06-27T12:00:29.468Z,2955
2018-06-27T12:01:39.548Z,3015
2018-06-27T12:02:49.349Z,2915
2018-06-27T12:03:59.444Z,2925
2018-06-27T12:05:09.599Z,2840
2018-06-27T12:06:19.667Z,2775
2018-06-27T12:07:29.494Z,2715
2018-06-27T12:08:40.000Z,2845
2018-06-27T12:09:50.118Z,2970
2018-06-27T12:10:59.993Z,2810
2018-06-27T12:12:09.552Z,2705
2018-06-27T12:13:19.637Z,2695
2018-06-27T12:14:29.455Z,2735
2018-06-27T12:15:39.575Z,3035
2018-06-27T12:16:49.865Z,2975
2018-06-27T12:17:59.995Z,3030
2018-06-27T12:19:10.103Z,3050
2018-06-27T12:20:20.211Z,3115
2018-06-27T12:21:30.312Z,3165
2018-06-27T12:22:40.211Z,3280
2018-06-27T12:23:49.517Z,3195
2018-06-27T12:24:59.636Z,3285
2018-06-27T12:26:09.479Z,3280
2018-06-27T12:27:19.294Z,2965
2018-06-27T12:28:28.606Z,3055
2018-06-27T12:29:38.423Z,3160
2018-06-27T12:30:47.995Z,3535
2018-06-27T12:31:58.089Z,3445
2018-06-27T12:33:07.906Z,3005
2018-06-27T12:34:17.789Z,2165
2018-06-27T12:35:27.879Z,2720
2018-06-27T12:36:37.736Z,2930
2018-06-27T12:37:47.831Z,1620
2018-06-27T12:38:57.403Z,1865
2018-06-27T12:40:07.279Z,2465
2018-06-27T12:41:17.106Z,2330
2018-06-27T12:42:26.948Z,2445
2018-06-27T12:43:37.051Z,2020
2018-06-27T12:44:46.875Z,2625
2018-06-27T12:45:57.005Z,3060
2018-06-27T12:47:06.830Z,2950
2018-06-27T12:48:16.944Z,2875
2018-06-27T12:49:26.762Z,3045
2018-06-27T12:50:36.593Z,2980
2018-06-27T12:51:46.724Z,1850
2018-06-27T12:52:56.820Z,1595
2018-06-27T12:54:06.907Z,2455
2018-06-27T12:55:17.007Z,2815
2018-06-27T12:56:27.108Z,2760
2018-06-27T12:57:36.770Z,2685
2018-06-27T12:58:46.605Z,2700
2018-06-27T12:59:57.084Z,2645
2018-06-27T13:01:07.198Z,2820
2018-06-27T13:02:16.496Z,2655
2018-06-27T13:03:26.522Z,2520
2018-06-27T13:04:36.344Z,2645
2018-06-27T13:05:45.920Z,2425
2018-06-27T13:06:56.012Z,2630
2018-06-27T13:08:06.105Z,2570
2018-06-27T13:09:16.085Z,2405
2018-06-27T13:10:26.334Z,2045
2018-06-27T13:11:36.434Z,2035
2018-06-27T13:12:46.538Z,2280
2018-06-27T13:13:56.086Z,2140
2018-06-27T13:15:05.968Z,1960
2018-06-27T13:16:15.514Z,1805
2018-06-27T13:17:25.328Z,1610
2018-06-27T13:18:35.167Z,1720
2018-06-27T13:19:45.250Z,2795
2018-06-27T13:20:55.122Z,1565
2018-06-27T13:22:05.237Z,1410
2018-06-27T13:23:15.319Z,1720
2018-06-27T13:24:24.873Z,1970
2018-06-27T13:25:34.697Z,2020
2018-06-27T13:26:44.576Z,2960
2018-06-27T13:27:54.394Z,2215
2018-06-27T13:29:04.505Z,1680
2018-06-27T13:30:14.348Z,1210
2018-06-27T13:31:24.181Z,960
2018-06-27T13:32:34.076Z,960
2018-06-27T13:33:44.171Z,995
2018-06-27T13:34:54.537Z,1060
2018-06-27T13:36:04.396Z,1065
2018-06-27T13:37:14.484Z,1105
2018-06-27T13:38:24.085Z,1065
2018-06-27T13:39:33.904Z,1185
2018-06-27T13:40:43.752Z,1275
2018-06-27T13:41:53.571Z,1315
2018-06-27T13:43:03.399Z,1270
2018-06-27T13:44:13.549Z,1575
2018-06-27T13:45:23.109Z,1575
2018-06-27T13:46:32.923Z,1435
2018-06-27T13:47:42.735Z,1315
2018-06-27T13:48:52.277Z,2055
2018-06-27T13:50:02.377Z,1780
2018-06-27T13:51:12.240Z,1525
2018-06-27T13:52:22.063Z,1435
2018-06-27T13:53:31.876Z,1565
2018-06-27T13:54:41.445Z,1520
2018-06-27T13:55:51.332Z,1320
2018-06-27T13:57:01.416Z,1075
2018-06-27T13:58:11.238Z,1065
2018-06-27T13:59:21.437Z,1095
2018-06-27T14:00:31.562Z,1055
2018-06-27T14:01:42.126Z,1070
2018-06-27T14:02:51.944Z,1115
2018-06-27T14:04:01.766Z,1130
2018-06-27T14:05:11.587Z,1200
2018-06-27T14:06:21.803Z,1330
2018-06-27T14:07:31.949Z,1490
2018-06-27T14:08:41.758Z,1405
2018-06-27T14:09:51.882Z,1640
2018-06-27T14:11:01.971Z,1795
2018-06-27T14:12:11.249Z,2135
2018-06-27T14:13:21.401Z,3950
2018-06-27T14:14:31.234Z,3925
2018-06-27T14:15:41.321Z,3720
2018-06-27T14:16:51.416Z,2400
2018-06-27T14:18:01.506Z,4035
2018-06-27T14:19:11.648Z,1575
2018-06-27T14:20:21.737Z,1475
2018-06-27T14:21:31.567Z,2870
2018-06-27T14:22:41.403Z,2860
2018-06-27T14:23:51.210Z,2515
2018-06-27T14:25:00.816Z,3455
2018-06-27T14:26:10.915Z,2610
2018-06-27T14:27:20.731Z,2895
2018-06-27T14:28:30.280Z,3435
2018-06-27T14:29:39.828Z,3225
2018-06-27T14:30:49.700Z,3265
2018-06-27T14:31:59.246Z,3415
2018-06-27T14:33:09.190Z,3175
2018-06-27T14:34:18.483Z,3140
2018-06-27T14:35:27.759Z,3220
2018-06-27T14:36:37.911Z,1845
2018-06-27T14:37:48.339Z,2530
2018-06-27T14:38:58.430Z,2660
2018-06-27T14:40:08.428Z,3265
2018-06-27T14:41:18.333Z,2020
2018-06-27T14:42:28.191Z,3620
2018-06-27T14:43:37.744Z,3360
2018-06-27T14:44:47.308Z,1570
2018-06-27T14:45:57.412Z,1420
2018-06-27T14:47:06.963Z,1375
2018-06-27T14:48:16.576Z,1705
2018-06-27T14:49:27.288Z,1700
2018-06-27T14:50:37.398Z,1440
2018-06-27T14:51:47.675Z,1610
2018-06-27T14:52:57.503Z,2720
2018-06-27T14:54:07.115Z,3550
2018-06-27T14:55:17.201Z,3350
2018-06-27T14:56:27.295Z,3380
2018-06-27T14:57:37.124Z,2975
2018-06-27T14:58:47.150Z,3105
2018-06-27T14:59:57.136Z,3250
2018-06-27T15:01:07.238Z,3290
2018-06-27T15:02:17.336Z,2660
2018-06-27T15:03:27.160Z,3040
2018-06-27T15:04:36.999Z,3180
2018-06-27T15:05:46.613Z,3150
2018-06-27T15:06:56.710Z,3190
2018-06-27T15:08:06.552Z,3140
2018-06-27T15:09:16.112Z,3005
2018-06-27T15:10:26.224Z,3005
2018-06-27T15:11:36.117Z,3055
2018-06-27T15:12:45.674Z,3010
2018-06-27T15:13:55.488Z,3135
2018-06-27T15:15:05.312Z,3165
2018-06-27T15:16:15.150Z,3030
2018-06-27T15:17:25.005Z,2970
2018-06-27T15:18:34.542Z,3180
2018-06-27T15:19:44.391Z,3085
2018-06-27T15:20:54.210Z,3155
2018-06-27T15:22:04.330Z,3135
2018-06-27T15:23:14.197Z,3090
2018-06-27T15:24:24.410Z,3120
2018-06-27T15:25:34.245Z,2215
2018-06-27T15:26:44.139Z,1480
2018-06-27T15:27:54.228Z,1645
2018-06-27T15:29:03.563Z,1665
2018-06-27T15:30:13.134Z,1635
2018-06-27T15:31:23.236Z,1930
2018-06-27T15:32:33.343Z,1870
2018-06-27T15:33:43.539Z,2040
2018-06-27T15:34:53.857Z,2200
2018-06-27T15:36:03.983Z,1965
2018-06-27T15:37:14.067Z,2080
2018-06-27T15:38:23.966Z,1990
2018-06-27T15:39:34.058Z,1970
2018-06-27T15:40:43.657Z,2425
2018-06-27T15:41:53.740Z,2560
2018-06-27T15:43:03.567Z,2370
2018-06-27T15:44:13.410Z,2400
2018-06-27T15:45:23.236Z,2385
2018-06-27T15:46:33.651Z,1885
2018-06-27T15:47:43.471Z,2085
2018-06-27T15:48:53.561Z,2455
2018-06-27T15:50:03.143Z,2680
2018-06-27T15:51:13.252Z,2700
2018-06-27T15:52:23.406Z,2575
2018-06-27T15:53:33.224Z,2480
2018-06-27T15:54:43.312Z,2615
2018-06-27T15:55:53.415Z,2350
2018-06-27T15:57:03.233Z,2265
2018-06-27T15:58:12.851Z,2625
2018-06-27T15:59:22.945Z,2665
2018-06-27T16:00:31.975Z,2710
2018-06-27T16:01:41.793Z,2675
2018-06-27T16:02:51.918Z,2615
2018-06-27T16:04:02.194Z,2540
2018-06-27T16:05:11.938Z,2495
2018-06-27T16:06:22.058Z,2105